Time;durP1;ratioP1;P1;durP2;ratioP2;P2;SDS_P1;SDS_P2;PMS_P1;PMS_P2;Temp;Humidity;BMP_temperature;BMP_pressure;BME280_temperature;BME280_humidity;BME280_pressure;Samples;Min_cycle;Max_cycle;Signal;HPM_P1;HPM_P2
2021/12/01 00:01:58;;;;;;;30.17;21.08;;;9.30;99.90;;;;;;5051476;28;20037;-73
2021/12/01 00:04:24;;;;;;;30.00;22.05;;;9.30;99.90;;;;;;5051550;28;20087;-73
2021/12/01 00:06:49;;;;;;;36.67;24.48;;;9.30;99.90;;;;;;5051507;28;20532;-73
2021/12/01 00:09:15;;;;;;;29.60;22.35;;;9.40;99.90;;;;;;5052530;28;20035;-72
2021/12/01 00:11:40;;;;;;;32.42;23.55;;;9.40;99.90;;;;;;5038817;28;20041;-72
2021/12/01 00:14:06;;;;;;;32.70;23.67;;;9.40;99.90;;;;;;5055238;28;20040;-72
2021/12/01 00:16:32;;;;;;;29.27;22.95;;;9.40;99.90;;;;;;5055293;28;20116;-72
2021/12/01 00:18:58;;;;;;;28.00;21.55;;;9.40;99.90;;;;;;5038631;28;20107;-72
2021/12/01 00:21:24;;;;;;;34.15;23.83;;;9.50;99.90;;;;;;5038495;28;20415;-72
2021/12/01 00:23:49;;;;;;;29.27;22.85;;;9.50;99.90;;;;;;5055001;28;20128;-72
2021/12/01 00:26:15;;;;;;;31.70;21.58;;;9.50;99.90;;;;;;5055117;28;20037;-72
2021/12/01 00:28:41;;;;;;;29.92;23.15;;;9.50;99.90;;;;;;5055041;28;20218;-72
2021/12/01 00:31:06;;;;;;;28.98;21.20;;;9.50;99.90;;;;;;5055002;28;20033;-72
2021/12/01 00:33:33;;;;;;;31.23;20.50;;;9.50;99.90;;;;;;5054895;28;20037;-72
2021/12/01 00:35:59;;;;;;;27.40;20.70;;;9.50;99.90;;;;;;5055180;28;20047;-72
2021/12/01 00:38:25;;;;;;;25.48;19.88;;;9.50;99.90;;;;;;5054888;28;20040;-73
2021/12/01 00:40:51;;;;;;;29.98;20.85;;;9.50;99.90;;;;;;5055087;28;20052;-73
2021/12/01 00:43:18;;;;;;;26.17;20.17;;;9.50;99.90;;;;;;5038075;28;20041;-73
2021/12/01 00:45:50;;;;;;;26.10;19.73;;;9.50;99.90;;;;;;5054739;28;20041;-73
2021/12/01 00:48:18;;;;;;;26.90;19.23;;;9.60;99.90;;;;;;5054765;28;20073;-73
2021/12/01 00:50:44;;;;;;;28.60;18.67;;;9.50;99.90;;;;;;5054655;28;20484;-73
2021/12/01 00:53:11;;;;;;;25.20;19.33;;;9.50;99.90;;;;;;5054572;28;20492;-73
2021/12/01 00:55:37;;;;;;;25.30;18.88;;;9.50;99.90;;;;;;5055066;28;20045;-73
2021/12/01 00:58:04;;;;;;;29.17;18.67;;;9.50;99.90;;;;;;5054518;28;20558;-73
2021/12/01 01:00:31;;;;;;;24.27;16.75;;;9.50;99.90;;;;;;5054527;28;20080;-73
2021/12/01 01:02:58;;;;;;;23.17;16.80;;;9.60;99.90;;;;;;5054364;28;20539;-73
2021/12/01 01:05:24;;;;;;;28.05;16.60;;;9.60;99.90;;;;;;5055003;28;20037;-72
2021/12/01 01:07:50;;;;;;;26.20;17.30;;;9.60;99.90;;;;;;5054343;28;20044;-72
2021/12/01 01:18:45;;;;;;;22.35;14.75;;;9.60;99.90;;;;;;5054390;28;20048;-72
2021/12/01 01:21:12;;;;;;;24.50;15.10;;;9.60;99.90;;;;;;5036228;28;20048;-72
2021/12/01 01:23:38;;;;;;;21.85;13.95;;;9.60;99.90;;;;;;5053999;28;20077;-72
2021/12/01 01:26:08;;;;;;;26.92;16.55;;;9.60;99.90;;;;;;5053984;28;20083;-72
2021/12/01 01:28:34;;;;;;;25.92;17.60;;;9.60;99.90;;;;;;5053911;28;20040;-72
2021/12/01 01:31:00;;;;;;;28.55;16.52;;;9.60;99.90;;;;;;5053899;28;20082;-72
2021/12/01 01:33:26;;;;;;;27.60;16.20;;;9.50;99.90;;;;;;5054033;28;20044;-71
2021/12/01 01:35:52;;;;;;;21.98;14.60;;;9.50;99.90;;;;;;5037211;28;20048;-71
2021/12/01 01:38:18;;;;;;;22.85;11.48;;;9.50;99.90;;;;;;5053751;28;20123;-71
2021/12/01 01:40:44;;;;;;;17.40;11.68;;;9.50;99.90;;;;;;5037420;28;20047;-72
2021/12/01 01:43:11;;;;;;;19.25;11.73;;;9.50;99.90;;;;;;5053543;28;20037;-72
2021/12/01 01:45:37;;;;;;;16.85;10.82;;;9.50;99.90;;;;;;5053668;28;20048;-72
2021/12/01 01:48:08;;;;;;;16.52;10.80;;;9.50;99.90;;;;;;5053821;28;20048;-72
2021/12/01 01:50:37;;;;;;;15.60;10.73;;;9.50;99.90;;;;;;5036959;28;20090;-72
2021/12/01 01:53:04;;;;;;;16.85;10.05;;;9.50;99.90;;;;;;5053394;28;20119;-72
2021/12/01 01:55:31;;;;;;;17.33;9.65;;;9.50;99.90;;;;;;5053454;28;20048;-72
2021/12/01 01:57:56;;;;;;;17.52;9.63;;;9.50;99.90;;;;;;5053643;28;20413;-72
2021/12/01 02:00:22;;;;;;;16.83;11.02;;;9.60;99.90;;;;;;5053288;28;20497;-72
2021/12/01 02:02:48;;;;;;;13.35;9.55;;;9.60;99.90;;;;;;5053395;28;20128;-72
2021/12/01 02:05:14;;;;;;;14.40;9.07;;;9.50;99.90;;;;;;5036721;28;20041;-72
2021/12/01 02:07:40;;;;;;;10.75;7.43;;;9.60;99.90;;;;;;5053164;28;20033;-72
2021/12/01 02:10:06;;;;;;;9.20;7.50;;;9.60;99.90;;;;;;5054121;28;20507;-72
2021/12/01 02:12:32;;;;;;;11.55;8.13;;;9.60;99.90;;;;;;5053387;28;20500;-72
2021/12/01 02:14:57;;;;;;;9.65;7.40;;;9.60;99.90;;;;;;5052968;28;20095;-72
2021/12/01 02:17:23;;;;;;;10.40;8.00;;;9.60;99.90;;;;;;5053039;28;20386;-72
2021/12/01 02:19:52;;;;;;;9.32;7.38;;;9.50;99.90;;;;;;5052979;28;20041;-72
2021/12/01 02:22:18;;;;;;;9.43;7.55;;;9.60;99.90;;;;;;5053063;28;20067;-71
2021/12/01 02:24:47;;;;;;;9.40;7.25;;;9.60;99.90;;;;;;5052829;28;20032;-72
2021/12/01 02:27:14;;;;;;;7.65;6.00;;;9.60;99.90;;;;;;5052856;28;20029;-72
2021/12/01 02:29:40;;;;;;;7.28;5.90;;;9.60;99.90;;;;;;5053054;28;20037;-72
2021/12/01 02:32:06;;;;;;;7.43;5.78;;;9.70;99.90;;;;;;5052387;28;20083;-72
2021/12/01 02:34:34;;;;;;;7.13;5.18;;;9.70;99.90;;;;;;5052612;28;20076;-72
2021/12/01 02:37:00;;;;;;;7.63;5.00;;;9.70;99.90;;;;;;5052947;28;20102;-72
2021/12/01 02:39:27;;;;;;;5.43;4.10;;;9.70;99.90;;;;;;5035996;28;20463;-72
2021/12/01 02:41:55;;;;;;;5.47;3.53;;;9.70;99.90;;;;;;5052516;28;20509;-72
2021/12/01 02:44:22;;;;;;;5.20;2.80;;;9.80;99.90;;;;;;5035934;28;20048;-72
2021/12/01 02:46:48;;;;;;;7.18;3.03;;;9.80;99.90;;;;;;5035958;28;20404;-72
2021/12/01 02:49:21;;;;;;;8.25;3.00;;;9.90;99.90;;;;;;5052480;28;20409;-72
2021/12/01 02:51:49;;;;;;;;;;;9.90;99.90;;;;;;5052883;28;20029;-72
2021/12/01 02:54:15;;;;;;;7.35;3.08;;;9.90;99.90;;;;;;5052283;28;19917;-72
2021/12/01 02:56:46;;;;;;;8.38;3.92;;;9.90;99.90;;;;;;5035993;28;20044;-72
2021/12/01 02:59:12;;;;;;;5.85;3.97;;;9.90;99.90;;;;;;5052557;28;20059;-72
2021/12/01 03:01:37;;;;;;;8.32;5.05;;;9.90;99.90;;;;;;5052588;28;20033;-72
2021/12/01 03:04:04;;;;;;;5.47;4.35;;;9.90;99.90;;;;;;5051933;28;20494;-72
2021/12/01 03:06:30;;;;;;;5.80;4.57;;;9.80;99.90;;;;;;5052225;28;20041;-72
2021/12/01 03:08:56;;;;;;;6.00;4.40;;;9.80;99.90;;;;;;5052136;28;20036;-72
2021/12/01 03:11:24;;;;;;;5.75;3.50;;;9.80;99.90;;;;;;5052349;28;20127;-72
2021/12/01 03:13:49;;;;;;;4.72;3.80;;;9.80;99.90;;;;;;5052309;28;20052;-72
2021/12/01 03:16:15;;;;;;;6.57;4.00;;;9.80;99.90;;;;;;5052293;28;20397;-72
2021/12/01 03:18:43;;;;;;;6.40;3.75;;;9.80;99.90;;;;;;5052030;28;20111;-72
2021/12/01 03:21:10;;;;;;;5.15;3.60;;;9.80;99.90;;;;;;5051990;28;20131;-72
2021/12/01 03:23:36;;;;;;;5.15;2.97;;;9.80;99.90;;;;;;5051866;28;20063;-72
2021/12/01 03:26:02;;;;;;;6.38;2.58;;;9.80;99.90;;;;;;5035238;28;20037;-72
2021/12/01 03:28:28;;;;;;;9.25;2.20;;;9.80;99.90;;;;;;5051866;28;20111;-72
2021/12/01 03:30:54;;;;;;;7.93;2.60;;;9.80;99.90;;;;;;5052144;28;20033;-72
2021/12/01 03:33:21;;;;;;;6.85;2.03;;;9.80;99.90;;;;;;5051759;28;20037;-72
2021/12/01 03:35:50;;;;;;;7.03;2.20;;;9.80;99.90;;;;;;5051833;28;20063;-72
2021/12/01 03:38:17;;;;;;;9.88;1.92;;;9.80;99.90;;;;;;5051772;28;20041;-72
2021/12/01 03:40:43;;;;;;;8.25;2.00;;;9.80;99.90;;;;;;5051737;28;20127;-72
2021/12/01 03:43:09;;;;;;;8.65;2.05;;;9.80;99.90;;;;;;5051768;28;20133;-72
2021/12/01 03:45:35;;;;;;;10.27;1.90;;;9.80;99.90;;;;;;5055103;28;20407;-72
2021/12/01 03:48:01;;;;;;;12.93;2.63;;;9.70;99.90;;;;;;5055855;28;20501;-72
2021/12/01 03:50:26;;;;;;;9.88;1.77;;;9.70;99.90;;;;;;5055814;28;20079;-72
2021/12/01 03:52:52;;;;;;;9.70;2.17;;;9.70;99.90;;;;;;5055709;28;20045;-72
2021/12/01 03:55:18;;;;;;;10.75;2.38;;;9.70;99.90;;;;;;5055889;28;20076;-72
2021/12/01 03:57:44;;;;;;;8.30;2.10;;;9.70;99.90;;;;;;5055937;28;20507;-72
2021/12/01 04:00:13;;;;;;;9.95;2.08;;;9.70;99.90;;;;;;5038974;28;20410;-72
2021/12/01 04:02:40;;;;;;;10.50;2.35;;;9.80;99.90;;;;;;5055428;28;20084;-72
2021/12/01 04:05:06;;;;;;;7.05;2.50;;;9.70;99.90;;;;;;5055388;28;20052;-72
2021/12/01 04:07:32;;;;;;;7.93;2.60;;;9.70;99.90;;;;;;5055472;28;20083;-72
2021/12/01 04:09:58;;;;;;;9.60;3.03;;;9.80;99.90;;;;;;5055699;28;20072;-72
2021/12/01 04:12:23;;;;;;;8.18;2.97;;;9.70;99.90;;;;;;5055401;28;20044;-72
2021/12/01 04:14:49;;;;;;;10.20;3.08;;;9.70;99.90;;;;;;5055301;28;20033;-72
2021/12/01 04:17:15;;;;;;;8.27;3.13;;;9.70;99.90;;;;;;5055513;28;20041;-72
2021/12/01 04:19:40;;;;;;;6.07;2.80;;;9.70;99.90;;;;;;5038703;28;20037;-72
2021/12/01 04:22:06;;;;;;;4.32;2.97;;;9.70;99.90;;;;;;5055149;28;20049;-72
2021/12/01 04:24:31;;;;;;;5.43;2.53;;;9.70;99.90;;;;;;5055113;28;20072;-72
2021/12/01 04:26:57;;;;;;;3.45;2.65;;;9.70;99.90;;;;;;5055131;28;20087;-72
2021/12/01 04:29:24;;;;;;;4.80;2.80;;;9.70;99.90;;;;;;5038420;28;20079;-72
2021/12/01 04:31:50;;;;;;;4.93;2.50;;;9.70;99.90;;;;;;5055339;28;20091;-72
2021/12/01 04:34:16;;;;;;;4.50;2.55;;;9.70;99.90;;;;;;5054987;28;20036;-72
2021/12/01 04:36:43;;;;;;;3.65;2.65;;;9.70;99.90;;;;;;5038302;28;20064;-72
2021/12/01 04:39:13;;;;;;;4.53;2.70;;;9.70;99.90;;;;;;5054954;28;20045;-72
2021/12/01 04:41:48;;;;;;;3.85;2.72;;;9.70;99.90;;;;;;5054807;28;20036;-72
2021/12/01 04:44:14;;;;;;;5.32;2.90;;;9.70;99.90;;;;;;5054720;28;20087;-72
2021/12/01 04:46:46;;;;;;;4.72;2.67;;;9.70;99.90;;;;;;5054750;28;20033;-71
2021/12/01 04:49:15;;;;;;;3.58;2.78;;;9.70;99.90;;;;;;5054775;28;20124;-71
2021/12/01 04:51:43;;;;;;;6.57;3.00;;;9.70;99.90;;;;;;5054706;28;20170;-71
2021/12/01 04:54:08;;;;;;;4.38;2.50;;;9.70;99.90;;;;;;5054588;28;20041;-71
2021/12/01 04:56:35;;;;;;;3.75;2.38;;;9.60;99.90;;;;;;5054294;28;20064;-71
2021/12/01 04:59:01;;;;;;;4.15;2.33;;;9.60;99.90;;;;;;5054549;28;20167;-71
2021/12/01 05:01:26;;;;;;;3.88;2.15;;;9.60;99.90;;;;;;5054455;28;20124;-71
2021/12/01 05:03:52;;;;;;;2.63;1.70;;;9.50;99.90;;;;;;5054204;28;20129;-72
2021/12/01 05:06:18;;;;;;;4.35;1.88;;;9.50;99.90;;;;;;5054406;28;20044;-72
2021/12/01 05:08:45;;;;;;;2.80;2.00;;;9.50;99.90;;;;;;5037920;28;20042;-72
2021/12/01 05:11:11;;;;;;;2.92;1.90;;;9.50;99.90;;;;;;5037692;28;20386;-72
2021/12/01 05:13:36;;;;;;;3.15;2.17;;;9.40;99.90;;;;;;5054158;28;20044;-72
2021/12/01 05:16:02;;;;;;;5.75;2.17;;;9.50;99.90;;;;;;5054183;28;20040;-72
2021/12/01 05:18:28;;;;;;;2.63;1.90;;;9.40;99.90;;;;;;5054409;28;20040;-72
2021/12/01 05:20:53;;;;;;;2.85;2.05;;;9.40;99.90;;;;;;5054084;28;20459;-72
2021/12/01 05:23:19;;;;;;;3.75;2.30;;;9.40;99.90;;;;;;5053910;28;20070;-72
2021/12/01 05:25:46;;;;;;;3.33;2.10;;;9.40;99.90;;;;;;5037410;28;20085;-72
2021/12/01 05:28:12;;;;;;;3.47;2.17;;;9.50;99.90;;;;;;5037965;28;20041;-72
2021/12/01 05:30:38;;;;;;;2.83;2.15;;;9.40;99.90;;;;;;5053969;28;20047;-72
2021/12/01 05:33:06;;;;;;;3.00;2.08;;;9.40;99.90;;;;;;5054085;28;20041;-72
2021/12/01 05:35:33;;;;;;;3.38;2.70;;;9.40;99.90;;;;;;5054372;28;20067;-72
2021/12/01 05:37:58;;;;;;;3.83;2.60;;;9.40;99.90;;;;;;5053818;28;20045;-72
2021/12/01 05:40:24;;;;;;;3.08;2.50;;;9.30;99.90;;;;;;5053772;28;20048;-72
2021/12/01 05:42:50;;;;;;;2.75;2.50;;;9.40;99.90;;;;;;5053664;28;20037;-72
2021/12/01 05:45:16;;;;;;;3.90;2.90;;;9.40;99.90;;;;;;5053887;28;20033;-72
2021/12/01 05:47:42;;;;;;;3.33;3.03;;;9.30;99.90;;;;;;5054236;28;20427;-72
2021/12/01 05:50:08;;;;;;;2.92;2.63;;;9.30;99.90;;;;;;5053834;28;20401;-72
2021/12/01 05:52:33;;;;;;;3.83;2.20;;;9.30;99.90;;;;;;5053487;28;20062;-72
2021/12/01 05:54:59;;;;;;;4.20;3.03;;;9.30;99.90;;;;;;5053413;28;20041;-72
2021/12/01 05:57:25;;;;;;;2.92;2.63;;;9.30;99.90;;;;;;5053317;28;20048;-72
2021/12/01 05:59:51;;;;;;;4.95;3.10;;;9.20;99.90;;;;;;5053404;28;20048;-72
2021/12/01 06:02:17;;;;;;;3.58;3.10;;;9.20;99.90;;;;;;5053189;28;20037;-72
2021/12/01 06:04:43;;;;;;;3.17;2.88;;;9.20;99.90;;;;;;5053113;28;20037;-72
2021/12/01 06:07:08;;;;;;;3.05;2.72;;;9.20;99.90;;;;;;5052547;28;20048;-72
2021/12/01 06:09:34;;;;;;;3.35;2.85;;;9.20;99.90;;;;;;5053222;28;20033;-72
2021/12/01 06:12:00;;;;;;;2.55;2.33;;;9.20;99.90;;;;;;5036526;28;20036;-72
2021/12/01 06:14:26;;;;;;;2.90;2.50;;;9.10;99.90;;;;;;5053223;28;20052;-72
2021/12/01 06:16:53;;;;;;;2.75;2.38;;;9.10;99.90;;;;;;5053098;28;20467;-72
2021/12/01 06:19:19;;;;;;;2.58;2.10;;;9.10;99.90;;;;;;5053047;28;20477;-72
2021/12/01 06:21:45;;;;;;;3.13;1.92;;;9.10;99.90;;;;;;5036409;28;20064;-71
2021/12/01 06:24:10;;;;;;;1.95;1.75;;;9.10;99.90;;;;;;5052706;28;20037;-71
2021/12/01 06:26:36;;;;;;;1.80;1.58;;;9.00;99.90;;;;;;5052878;28;20044;-71
2021/12/01 06:29:01;;;;;;;2.50;1.58;;;9.00;99.90;;;;;;5052832;28;20037;-71
2021/12/01 06:31:27;;;;;;;1.27;1.17;;;9.00;99.90;;;;;;5052790;28;20037;-71
2021/12/01 06:33:53;;;;;;;2.10;1.35;;;9.00;99.90;;;;;;5052732;28;20047;-72
2021/12/01 06:36:18;;;;;;;1.50;1.30;;;9.00;99.90;;;;;;5052722;28;20040;-72
2021/12/01 06:38:44;;;;;;;1.90;1.30;;;9.00;99.90;;;;;;5052613;28;20037;-72
2021/12/01 06:41:10;;;;;;;1.40;1.00;;;9.00;99.90;;;;;;5052633;28;20048;-72
2021/12/01 06:43:35;;;;;;;2.22;1.33;;;8.90;99.90;;;;;;5052500;28;20060;-72
2021/12/01 06:46:01;;;;;;;1.35;1.25;;;9.00;99.90;;;;;;5035933;28;20044;-72
2021/12/01 06:48:27;;;;;;;1.95;1.30;;;9.00;99.90;;;;;;5036185;28;20099;-72
2021/12/01 06:50:52;;;;;;;2.83;1.30;;;8.90;99.90;;;;;;5052671;28;20051;-72
2021/12/01 06:53:18;;;;;;;1.70;1.38;;;8.90;99.90;;;;;;5052354;28;20040;-72
2021/12/01 06:55:44;;;;;;;1.23;1.10;;;8.90;99.90;;;;;;5052791;28;20045;-72
2021/12/01 06:58:10;;;;;;;1.77;1.23;;;8.90;99.90;;;;;;5052234;28;20041;-72
2021/12/01 07:00:35;;;;;;;1.48;1.20;;;8.90;99.90;;;;;;5052297;28;20052;-72
2021/12/01 07:03:01;;;;;;;1.33;1.20;;;8.80;99.90;;;;;;5035743;28;20087;-71
2021/12/01 07:05:27;;;;;;;1.35;1.13;;;8.90;99.90;;;;;;5052527;28;20476;-72
2021/12/01 07:07:54;;;;;;;1.45;1.35;;;8.80;99.90;;;;;;5052420;28;20135;-72
2021/12/01 07:10:20;;;;;;;2.60;1.67;;;8.80;99.90;;;;;;5052092;28;20045;-73
2021/12/01 07:12:46;;;;;;;1.63;1.52;;;8.80;99.90;;;;;;5052119;28;20037;-73
2021/12/01 07:15:13;;;;;;;2.03;1.70;;;8.80;99.90;;;;;;5051965;28;20036;-73
2021/12/01 07:17:41;;;;;;;1.50;1.40;;;8.70;99.90;;;;;;5051981;28;20504;-73
2021/12/01 07:20:08;;;;;;;4.10;1.70;;;8.70;99.90;;;;;;5051966;28;20132;-72
2021/12/01 07:22:34;;;;;;;1.75;1.52;;;8.80;99.90;;;;;;5051873;28;20044;-72
2021/12/01 07:25:00;;;;;;;1.50;1.40;;;8.70;99.90;;;;;;5052067;28;20032;-72
2021/12/01 07:27:26;;;;;;;3.28;1.80;;;8.70;99.90;;;;;;5051796;28;20033;-73
2021/12/01 07:29:51;;;;;;;4.13;2.00;;;8.80;99.90;;;;;;5051832;28;20043;-73
2021/12/01 07:32:17;;;;;;;2.35;2.15;;;8.70;99.90;;;;;;5051753;28;20048;-73
2021/12/01 07:34:42;;;;;;;2.83;2.53;;;8.80;99.90;;;;;;5035082;28;20047;-72
2021/12/01 07:37:14;;;;;;;2.78;2.42;;;8.80;99.90;;;;;;5035253;28;20126;-72
2021/12/01 07:39:40;;;;;;;3.28;2.70;;;8.80;99.90;;;;;;5052180;28;20378;-73
2021/12/01 07:42:07;;;;;;;3.95;3.08;;;8.80;99.90;;;;;;5052068;28;20546;-73
2021/12/01 07:44:32;;;;;;;3.50;3.20;;;8.80;99.90;;;;;;5051779;28;20099;-72
2021/12/01 07:46:58;;;;;;;3.40;3.03;;;8.80;99.90;;;;;;5051667;28;20037;-72
2021/12/01 07:49:25;;;;;;;3.58;3.22;;;8.80;99.90;;;;;;5051699;28;20040;-73
2021/12/01 07:51:50;;;;;;;4.43;3.80;;;8.80;99.90;;;;;;5051686;28;20037;-73
2021/12/01 07:54:16;;;;;;;4.43;3.30;;;8.80;99.90;;;;;;5051591;28;20047;-73
2021/12/01 07:56:42;;;;;;;5.25;3.25;;;8.80;99.90;;;;;;5051752;28;20098;-73
2021/12/01 07:59:10;;;;;;;4.60;3.42;;;8.90;99.90;;;;;;5051867;28;20079;-73
2021/12/01 08:01:36;;;;;;;5.32;3.85;;;8.90;99.90;;;;;;5051760;28;20505;-73
2021/12/01 08:04:03;;;;;;;4.15;3.28;;;8.90;99.90;;;;;;5034994;28;20131;-73
2021/12/01 08:06:31;;;;;;;5.35;3.38;;;8.90;99.90;;;;;;5035349;28;20100;-73
2021/12/01 08:09:00;;;;;;;4.82;3.30;;;9.00;99.90;;;;;;5051483;28;20416;-73
2021/12/01 08:11:27;;;;;;;5.70;3.45;;;9.00;99.90;;;;;;5034865;28;20086;-73
2021/12/01 08:13:52;;;;;;;4.22;3.40;;;9.00;99.90;;;;;;5051609;28;20049;-73
2021/12/01 08:16:18;;;;;;;5.20;3.35;;;9.00;99.90;;;;;;5051676;28;20051;-73
2021/12/01 08:18:44;;;;;;;5.05;3.60;;;9.00;99.90;;;;;;5034853;28;20523;-73
2021/12/01 08:21:09;;;;;;;4.95;3.38;;;9.00;99.90;;;;;;5051331;28;20045;-73
2021/12/01 08:23:35;;;;;;;5.95;3.25;;;9.10;99.90;;;;;;5051443;28;20064;-73
2021/12/01 08:26:01;;;;;;;4.82;3.20;;;9.10;99.90;;;;;;5051348;28;20029;-73
2021/12/01 08:28:26;;;;;;;4.07;3.50;;;9.10;99.90;;;;;;5051251;28;20041;-72
2021/12/01 08:30:52;;;;;;;4.38;3.78;;;9.20;99.90;;;;;;5053458;28;20045;-71
2021/12/01 08:33:17;;;;;;;5.65;3.80;;;9.20;99.90;;;;;;5054981;28;20040;-72
2021/12/01 08:35:43;;;;;;;5.70;4.15;;;9.10;99.90;;;;;;5055022;28;20033;-72
2021/12/01 08:38:09;;;;;;;6.78;3.40;;;9.10;99.90;;;;;;5055047;28;20033;-73
2021/12/01 08:40:34;;;;;;;5.72;3.38;;;9.10;99.90;;;;;;5038635;28;20037;-72
2021/12/01 08:43:00;;;;;;;5.03;2.90;;;9.10;99.90;;;;;;5055015;28;20527;-72
2021/12/01 08:45:26;;;;;;;6.13;2.13;;;9.00;99.90;;;;;;5055030;28;20033;-73
2021/12/01 08:47:51;;;;;;;7.00;2.20;;;9.10;99.90;;;;;;5055215;28;20452;-73
2021/12/01 08:50:17;;;;;;;4.45;1.80;;;9.10;99.90;;;;;;5038111;28;20044;-73
2021/12/01 08:52:45;;;;;;;9.30;1.90;;;9.00;99.90;;;;;;5054812;28;20048;-73
2021/12/01 08:55:10;;;;;;;5.70;1.85;;;9.00;99.90;;;;;;5054822;28;20066;-73
2021/12/01 08:57:36;;;;;;;10.75;1.75;;;9.00;99.90;;;;;;5054571;28;20497;-73
2021/12/01 09:00:04;;;;;;;9.02;1.40;;;9.00;99.90;;;;;;5054538;28;20048;-72
2021/12/01 09:02:30;;;;;;;11.57;2.08;;;9.00;99.90;;;;;;5054548;28;20041;-71
2021/12/01 09:04:55;;;;;;;12.60;1.70;;;9.00;99.90;;;;;;5054246;28;20037;-72
2021/12/01 09:07:21;;;;;;;9.70;1.60;;;9.00;99.90;;;;;;5054389;28;20044;-72
2021/12/01 09:09:47;;;;;;;11.18;2.42;;;9.10;99.90;;;;;;5054295;28;20108;-72
2021/12/01 09:12:14;;;;;;;13.32;1.88;;;9.10;99.90;;;;;;5054365;28;20115;-72
2021/12/01 09:14:41;;;;;;;15.02;2.53;;;9.20;99.90;;;;;;5054164;28;20087;-72
2021/12/01 09:17:06;;;;;;;12.13;2.10;;;9.20;99.90;;;;;;5054220;28;20033;-72
2021/12/01 09:19:32;;;;;;;10.45;1.63;;;9.20;99.90;;;;;;5054436;28;20127;-72
2021/12/01 09:21:57;;;;;;;16.98;2.42;;;9.20;99.90;;;;;;5054103;28;20456;-73
2021/12/01 09:24:23;;;;;;;8.90;1.83;;;9.20;99.90;;;;;;5054052;28;20087;-73
2021/12/01 09:26:49;;;;;;;8.15;1.42;;;9.20;99.90;;;;;;5053984;28;20040;-73
2021/12/01 09:29:15;;;;;;;8.65;1.55;;;9.30;99.90;;;;;;5054191;28;20143;-73
2021/12/01 09:31:41;;;;;;;9.60;1.85;;;9.20;99.90;;;;;;5053958;28;20109;-73
2021/12/01 09:34:07;;;;;;;8.45;1.50;;;9.20;99.90;;;;;;5054085;28;20045;-72
2021/12/01 09:36:33;;;;;;;9.02;1.55;;;9.20;99.90;;;;;;5053914;28;20053;-72
2021/12/01 09:38:58;;;;;;;11.15;2.03;;;9.10;99.90;;;;;;5054081;28;20041;-72
2021/12/01 09:41:24;;;;;;;10.38;1.83;;;9.10;99.90;;;;;;5053136;28;20497;-72
2021/12/01 09:43:50;;;;;;;9.65;1.70;;;9.00;99.90;;;;;;5053414;28;20045;-72
2021/12/01 09:46:17;;;;;;;9.35;1.58;;;9.00;99.90;;;;;;5053768;28;20045;-73
2021/12/01 09:48:43;;;;;;;10.90;1.52;;;8.90;99.90;;;;;;5053900;28;20029;-73
2021/12/01 09:51:10;;;;;;;10.57;1.58;;;8.90;99.90;;;;;;5053852;28;20455;-73
2021/12/01 09:53:37;;;;;;;13.27;1.52;;;8.90;99.90;;;;;;5053735;28;20154;-73
2021/12/01 09:56:03;;;;;;;8.10;1.95;;;8.90;99.90;;;;;;5053465;28;20036;-73
2021/12/01 09:58:31;;;;;;;14.45;2.15;;;8.80;99.90;;;;;;5053694;28;20036;-73
2021/12/01 10:01:00;;;;;;;7.65;1.10;;;8.80;99.90;;;;;;5036836;28;20033;-73
2021/12/01 10:03:26;;;;;;;10.15;1.48;;;8.80;99.90;;;;;;5036853;28;20037;-73
2021/12/01 10:08:31;;;;;;;8.95;1.35;;;8.90;99.90;;;;;;5053464;28;20457;-73
2021/12/01 10:10:57;;;;;;;12.32;1.80;;;8.90;99.90;;;;;;5036880;28;20041;-73
2021/12/01 10:13:33;;;;;;;12.98;1.95;;;8.90;99.90;;;;;;5036465;28;20041;-73
2021/12/01 10:16:01;;;;;;;13.23;1.98;;;8.90;99.90;;;;;;5053131;28;20091;-73
2021/12/01 10:18:29;;;;;;;12.32;1.90;;;8.90;99.90;;;;;;5036404;28;20523;-73
2021/12/01 10:21:35;;;;;;;10.93;1.75;;;8.90;99.90;;;;;;5053336;28;20041;-73
2021/12/01 10:24:03;;;;;;;17.50;2.47;;;8.90;99.90;;;;;;5042297;28;20045;-74
2021/12/01 10:26:36;;;;;;;16.83;2.35;;;9.00;99.90;;;;;;5053155;28;20051;-74
2021/12/01 10:29:05;;;;;;;16.08;2.20;;;9.00;99.90;;;;;;5036346;28;20072;-72
2021/12/01 10:31:42;;;;;;;15.40;2.08;;;8.90;99.90;;;;;;5054409;28;20037;-72
2021/12/01 10:34:25;;;;;;;16.65;2.17;;;8.90;99.90;;;;;;5052651;28;20045;-72
2021/12/01 10:37:22;;;;;;;15.02;2.13;;;8.90;99.90;;;;;;5053016;28;20048;-72
2021/12/01 10:40:03;;;;;;;10.40;1.60;;;8.80;99.90;;;;;;5036060;28;20033;-72
2021/12/01 10:42:29;;;;;;;9.38;1.90;;;8.80;99.90;;;;;;5036216;28;20056;-73
2021/12/01 10:44:57;;;;;;;14.38;1.80;;;8.90;99.90;;;;;;5052505;28;20068;-73
2021/12/01 10:47:22;;;;;;;13.65;2.70;;;9.00;99.90;;;;;;5052534;28;20086;-73
2021/12/01 10:49:48;;;;;;;12.13;1.60;;;9.00;99.90;;;;;;5052751;28;20045;-74
2021/12/01 10:52:34;;;;;;;14.60;2.58;;;9.00;99.90;;;;;;5035805;28;20132;-73
2021/12/01 10:55:11;;;;;;;15.32;1.95;;;9.00;99.90;;;;;;5052274;28;20033;-73
2021/12/01 10:57:39;;;;;;;8.07;1.52;;;9.00;99.90;;;;;;5052321;28;20072;-73
2021/12/01 11:00:14;;;;;;;9.27;1.83;;;9.00;99.90;;;;;;5052521;28;20033;-73
2021/12/01 11:02:39;;;;;;;11.57;2.10;;;9.00;99.90;;;;;;5053049;28;20431;-73
2021/12/01 11:05:05;;;;;;;18.17;2.60;;;9.00;99.90;;;;;;5051983;28;20500;-73
2021/12/01 11:07:33;;;;;;;13.70;1.83;;;9.00;99.90;;;;;;5035865;28;20033;-74
2021/12/01 11:10:28;;;;;;;12.73;2.22;;;8.90;99.90;;;;;;5052416;28;20461;-73
2021/12/01 11:12:57;;;;;;;14.35;2.33;;;8.90;99.90;;;;;;5035654;28;20049;-74
2021/12/01 11:15:36;;;;;;;16.02;2.80;;;8.90;99.90;;;;;;5051972;28;20132;-73
2021/12/01 11:18:03;;;;;;;18.70;2.30;;;8.90;99.90;;;;;;5052094;28;20077;-73
2021/12/01 11:20:43;;;;;;;17.40;2.63;;;8.90;99.90;;;;;;5051895;28;20041;-74
2021/12/01 11:23:14;;;;;;;17.10;2.58;;;8.90;99.90;;;;;;5035246;28;20131;-73
2021/12/01 11:25:42;;;;;;;15.13;2.22;;;8.90;99.90;;;;;;5051890;28;20044;-73
2021/12/01 11:28:09;;;;;;;15.70;2.45;;;8.90;99.90;;;;;;5051870;28;20428;-74
2021/12/01 11:30:36;;;;;;;17.75;2.72;;;8.90;99.90;;;;;;5051852;28;20033;-73
2021/12/01 11:33:03;;;;;;;12.30;2.60;;;8.90;99.90;;;;;;5052013;28;20044;-74
2021/12/01 11:35:29;;;;;;;14.75;2.78;;;8.90;99.90;;;;;;5035363;28;20513;-74
2021/12/01 11:37:55;;;;;;;19.73;2.80;;;8.90;99.90;;;;;;5052044;28;20041;-73
2021/12/01 11:40:29;;;;;;;16.13;3.30;;;8.90;99.90;;;;;;5035226;28;20037;-73
2021/12/01 11:42:56;;;;;;;17.63;2.80;;;8.90;99.90;;;;;;5051836;28;20436;-74
2021/12/01 11:45:23;;;;;;;19.10;3.30;;;8.90;99.90;;;;;;5035090;28;20404;-74
2021/12/01 11:47:50;;;;;;;18.52;2.92;;;8.90;99.90;;;;;;5051983;28;20075;-73
2021/12/01 11:50:41;;;;;;;19.45;3.28;;;8.80;99.90;;;;;;5051669;28;20033;-73
2021/12/01 11:53:26;;;;;;;19.98;3.00;;;8.90;99.90;;;;;;5051487;28;20033;-74
2021/12/01 11:55:57;;;;;;;15.20;2.75;;;8.80;99.90;;;;;;5051696;28;20072;-74
2021/12/01 11:58:41;;;;;;;16.70;3.60;;;8.80;99.90;;;;;;5051690;28;20045;-74
2021/12/01 12:01:22;;;;;;;17.73;3.25;;;8.70;99.90;;;;;;5035007;28;20086;-73
2021/12/01 12:03:54;;;;;;;16.90;3.13;;;8.70;99.90;;;;;;5051297;28;20430;-73
2021/12/01 12:06:25;;;;;;;15.23;2.30;;;8.60;99.90;;;;;;5054288;28;20037;-74
2021/12/01 12:08:53;;;;;;;12.23;2.03;;;8.60;99.90;;;;;;5055500;28;20488;-73
2021/12/01 12:11:39;;;;;;;18.38;2.70;;;8.50;99.90;;;;;;5055816;28;20029;-73
2021/12/01 12:14:43;;;;;;;19.77;3.05;;;8.50;99.90;;;;;;5055610;28;20048;-73
2021/12/01 12:17:13;;;;;;;18.67;3.53;;;8.50;99.90;;;;;;5055714;28;20041;-74
2021/12/01 12:19:58;;;;;;;21.67;3.10;;;8.40;99.90;;;;;;5039522;28;20049;-74
2021/12/01 12:22:37;;;;;;;18.48;3.30;;;8.50;99.90;;;;;;5055636;28;20080;-74
2021/12/01 12:25:05;;;;;;;19.75;3.08;;;8.50;99.90;;;;;;5055734;28;20068;-74
2021/12/01 12:27:36;;;;;;;18.88;3.08;;;8.50;99.90;;;;;;5055231;28;20039;-74
2021/12/01 12:30:33;;;;;;;21.55;4.15;;;8.50;99.90;;;;;;5055125;28;20048;-74
2021/12/01 12:33:22;;;;;;;17.30;3.40;;;8.60;99.90;;;;;;5054513;28;20037;-73
2021/12/01 12:35:54;;;;;;;20.30;4.15;;;8.50;99.90;;;;;;5055354;28;20051;-74
2021/12/01 12:38:20;;;;;;;24.00;4.50;;;8.40;99.90;;;;;;5038722;28;20120;-73
2021/12/01 12:40:58;;;;;;;17.20;3.30;;;8.40;99.90;;;;;;5054927;28;20569;-74
2021/12/01 12:43:25;;;;;;;19.90;3.22;;;8.40;99.90;;;;;;5054715;28;20102;-73
2021/12/01 12:46:04;;;;;;;22.58;3.20;;;8.30;99.90;;;;;;5054886;28;20048;-74
2021/12/01 12:48:34;;;;;;;21.70;3.35;;;8.30;99.90;;;;;;5038332;28;20033;-74
2021/12/01 12:51:15;;;;;;;17.45;3.35;;;8.20;99.90;;;;;;5055020;28;20073;-73
2021/12/01 12:53:59;;;;;;;16.38;2.70;;;8.30;99.90;;;;;;5054633;28;20040;-73
2021/12/01 12:56:31;;;;;;;23.40;3.55;;;8.40;99.90;;;;;;5038247;28;20089;-73
2021/12/01 12:59:15;;;;;;;17.57;3.00;;;8.40;99.90;;;;;;5054566;28;20044;-73
2021/12/01 13:01:41;;;;;;;18.75;2.40;;;8.40;99.90;;;;;;5054529;28;20127;-73
2021/12/01 13:04:45;;;;;;;18.42;3.45;;;8.40;99.90;;;;;;5054244;28;20174;-73
2021/12/01 13:07:32;;;;;;;17.85;2.53;;;8.40;99.90;;;;;;5054850;28;20060;-73